createdAt,value
2022-10-18T00:01:49.260Z,1.88
2022-10-18T00:04:55.391Z,1.86
2022-10-18T00:08:01.613Z,1.96
2022-10-18T00:11:09.533Z,1.48
2022-10-18T00:14:15.759Z,1.93
2022-10-18T00:17:21.877Z,2.11
2022-10-18T00:20:28.514Z,1.89
2022-10-18T00:23:37.086Z,2.24
2022-10-18T00:26:44.872Z,2.25
2022-10-18T00:29:53.848Z,1.67
2022-10-18T00:33:00.147Z,1.75
2022-10-18T00:36:07.137Z,1.87
2022-10-18T00:39:17.650Z,0.90
2022-10-18T00:42:29.403Z,1.35
2022-10-18T00:45:35.787Z,0.91
2022-10-18T00:48:42.203Z,1.11
2022-10-18T00:51:54.675Z,0.78
2022-10-18T00:55:01.779Z,0.24
2022-10-18T00:58:10.499Z,-0.02
2022-10-18T01:01:16.704Z,0.02
2022-10-18T01:04:23.525Z,0.44
2022-10-18T01:07:50.355Z,-0.08
2022-10-18T01:11:19.752Z,0.53
2022-10-18T01:14:41.443Z,0.66
2022-10-18T01:17:56.347Z,0.69
2022-10-18T01:21:26.357Z,1.07
2022-10-18T01:24:49.063Z,0.40
2022-10-18T01:28:01.512Z,0.64
2022-10-18T01:31:13.708Z,0.65
2022-10-18T01:34:21.619Z,0.89
2022-10-18T01:37:29.986Z,0.54
2022-10-18T01:40:37.862Z,0.72
2022-10-18T01:43:45.452Z,0.44
2022-10-18T01:46:55.458Z,0.40
2022-10-18T01:50:04.528Z,-0.05
2022-10-18T01:53:24.223Z,-0.04
2022-10-18T01:56:36.742Z,0.96
2022-10-18T01:59:53.242Z,0.33
2022-10-18T02:03:06.326Z,-0.29
2022-10-18T02:06:20.118Z,-0.67
2022-10-18T02:09:34.858Z,0.17
2022-10-18T02:12:44.746Z,-0.28
2022-10-18T02:15:55.257Z,-0.21
2022-10-18T02:19:11.294Z,-0.34
2022-10-18T02:22:19.440Z,0.11
2022-10-18T02:25:28.721Z,-0.19
2022-10-18T02:28:35.148Z,0.03
2022-10-18T02:31:45.734Z,0.46
2022-10-18T02:35:02.070Z,-0.37
2022-10-18T02:38:10.909Z,0.23
2022-10-18T02:41:24.557Z,0.54
2022-10-18T02:44:30.686Z,0.44
2022-10-18T02:47:37.072Z,0.77
2022-10-18T02:50:44.870Z,0.39
2022-10-18T02:53:51.128Z,0.17
2022-10-18T02:56:57.582Z,0.48
2022-10-18T03:00:04.987Z,0.09
2022-10-18T03:03:11.354Z,-0.14
2022-10-18T03:06:19.205Z,-0.35
2022-10-18T03:09:25.496Z,0.22
2022-10-18T03:12:31.630Z,0.42
2022-10-18T03:15:38.169Z,0.82
2022-10-18T03:18:44.177Z,0.76
2022-10-18T03:21:51.599Z,0.95
2022-10-18T03:24:57.418Z,0.48
2022-10-18T03:28:03.940Z,0.62
2022-10-18T03:31:10.062Z,0.50
2022-10-18T03:34:17.812Z,0.64
2022-10-18T03:37:25.334Z,0.11
2022-10-18T03:43:42.244Z,-0.89
2022-10-18T03:46:48.599Z,-0.84
2022-10-18T03:49:57.149Z,-1.06
2022-10-18T03:53:05.460Z,-0.44
2022-10-18T03:56:11.611Z,-0.21
2022-10-18T03:59:17.954Z,-0.13
2022-10-18T04:02:24.442Z,-0.37
2022-10-18T04:05:31.334Z,-0.11
2022-10-18T04:08:39.183Z,-0.16
2022-10-18T04:11:45.410Z,-0.45
2022-10-18T04:14:51.599Z,-0.09
2022-10-18T04:17:58.561Z,0.63
2022-10-18T04:21:05.042Z,0.70
2022-10-18T04:24:13.077Z,0.09
2022-10-18T04:27:19.462Z,0.52
2022-10-18T04:30:25.646Z,-1.38
2022-10-18T04:33:32.065Z,-0.29
2022-10-18T04:36:38.130Z,-0.69
2022-10-18T04:39:51.252Z,-0.48
2022-10-18T04:43:00.086Z,-0.37
2022-10-18T04:46:06.703Z,-0.59
2022-10-18T04:49:12.816Z,-0.25
2022-10-18T04:52:19.035Z,0.04
2022-10-18T04:55:26.832Z,0.50
2022-10-18T04:58:33.823Z,0.59
2022-10-18T05:01:39.908Z,0.45
2022-10-18T05:04:46.178Z,0.35
2022-10-18T05:07:52.498Z,0.45
2022-10-18T05:11:00.942Z,0.36
2022-10-18T05:14:10.148Z,0.60
2022-10-18T05:17:16.451Z,0.14
2022-10-18T05:20:22.792Z,0.84
2022-10-18T05:23:29.312Z,0.57
2022-10-18T05:26:36.985Z,1.04
2022-10-18T05:29:42.977Z,0.26
2022-10-18T05:32:49.447Z,0.86
2022-10-18T05:35:55.790Z,0.59
2022-10-18T05:39:05.175Z,1.59
2022-10-18T05:42:13.320Z,1.70
2022-10-18T05:45:19.273Z,2.02
2022-10-18T05:48:25.650Z,1.84
2022-10-18T05:51:31.654Z,3.12
2022-10-18T05:54:37.908Z,3.23
2022-10-18T05:57:50.218Z,3.21
2022-10-18T06:00:56.209Z,2.65
2022-10-18T06:04:02.576Z,2.45
2022-10-18T06:07:10.591Z,3.18
2022-10-18T06:10:17.164Z,3.47
2022-10-18T06:13:24.964Z,3.60
2022-10-18T06:16:32.587Z,4.07
2022-10-18T06:19:39.067Z,4.17
2022-10-18T06:22:45.176Z,4.41
2022-10-18T06:25:51.433Z,4.70
2022-10-18T06:28:59.320Z,4.90
2022-10-18T06:32:06.835Z,5.26
2022-10-18T06:35:13.089Z,5.04
2022-10-18T06:38:19.579Z,5.58
2022-10-18T06:41:25.760Z,5.42
2022-10-18T06:44:33.737Z,5.09
2022-10-18T06:47:39.784Z,5.52
2022-10-18T06:50:52.763Z,6.06
2022-10-18T06:54:16.382Z,6.32
2022-10-18T06:57:24.040Z,6.44
2022-10-18T07:00:31.640Z,6.44
2022-10-18T07:03:38.056Z,6.75
2022-10-18T07:06:44.234Z,7.11
2022-10-18T07:09:50.835Z,7.33
2022-10-18T07:13:13.528Z,7.24
2022-10-18T07:16:25.280Z,7.63
2022-10-18T07:19:31.527Z,7.85
2022-10-18T07:22:38.307Z,8.16
2022-10-18T07:25:45.005Z,8.01
2022-10-18T07:28:54.657Z,8.53
2022-10-18T07:32:02.690Z,8.59
2022-10-18T07:35:09.500Z,9.08
2022-10-18T07:38:15.731Z,9.35
2022-10-18T07:41:22.399Z,8.91
2022-10-18T07:44:28.555Z,9.07
2022-10-18T07:47:36.498Z,8.92
2022-10-18T07:50:42.631Z,9.75
2022-10-18T07:53:49.333Z,9.40
2022-10-18T07:56:55.609Z,9.83
2022-10-18T08:00:01.752Z,10.15
2022-10-18T08:03:09.560Z,10.46
2022-10-18T08:06:18.653Z,10.55
2022-10-18T08:09:24.792Z,10.67
2022-10-18T08:12:30.783Z,10.75
2022-10-18T08:15:37.402Z,10.95
2022-10-18T08:18:45.498Z,11.31
2022-10-18T08:21:51.847Z,11.67
2022-10-18T08:24:58.138Z,11.31
2022-10-18T08:28:04.260Z,11.94
2022-10-18T08:31:14.473Z,11.92
2022-10-18T08:34:22.155Z,12.61
2022-10-18T08:37:28.078Z,13.00
2022-10-18T08:40:35.792Z,13.41
2022-10-18T08:43:47.991Z,13.55
2022-10-18T08:46:57.575Z,14.10
2022-10-18T08:50:08.837Z,13.82
2022-10-18T08:53:18.963Z,14.02
2022-10-18T08:56:25.129Z,14.48
2022-10-18T08:59:39.299Z,14.59
2022-10-18T09:02:59.543Z,14.68
2022-10-18T09:06:21.224Z,14.85
2022-10-18T09:09:39.568Z,14.92
2022-10-18T09:13:13.725Z,14.89
2022-10-18T09:16:23.334Z,14.93
2022-10-18T09:19:47.570Z,15.60
2022-10-18T09:22:57.925Z,15.40
2022-10-18T09:26:11.669Z,15.51
2022-10-18T09:29:41.328Z,16.18
2022-10-18T09:32:52.948Z,16.46
2022-10-18T09:36:03.654Z,16.61
2022-10-18T09:39:15.384Z,16.83
2022-10-18T09:42:29.878Z,16.19
2022-10-18T09:45:38.787Z,16.33
2022-10-18T09:48:50.501Z,16.33
2022-10-18T09:51:56.770Z,17.02
2022-10-18T09:55:10.518Z,17.10
2022-10-18T09:58:18.620Z,17.35
2022-10-18T10:01:27.165Z,17.89
2022-10-18T10:04:33.523Z,17.88
2022-10-18T10:07:44.778Z,17.73
2022-10-18T10:10:52.472Z,17.86
2022-10-18T10:14:07.649Z,17.64
2022-10-18T10:17:26.160Z,18.27
2022-10-18T10:20:36.982Z,18.24
2022-10-18T10:23:48.095Z,18.34
2022-10-18T10:27:02.955Z,18.85
2022-10-18T10:30:24.231Z,19.06
2022-10-18T10:33:34.384Z,18.89
2022-10-18T10:36:48.673Z,18.55
2022-10-18T10:40:26.505Z,19.46
2022-10-18T10:43:40.282Z,19.28
2022-10-18T10:46:49.362Z,18.99
2022-10-18T10:49:57.960Z,19.16
2022-10-18T10:53:04.167Z,19.81
2022-10-18T10:56:22.456Z,19.59
2022-10-18T10:59:32.857Z,20.09
2022-10-18T11:02:39.074Z,20.41
2022-10-18T11:05:47.571Z,19.89
2022-10-18T11:08:57.458Z,19.90
2022-10-18T11:12:13.151Z,20.57
2022-10-18T11:15:28.740Z,20.53
2022-10-18T11:18:36.583Z,19.95
2022-10-18T11:21:43.697Z,20.33
2022-10-18T11:24:50.067Z,20.59
2022-10-18T11:28:03.499Z,21.30
2022-10-18T11:31:20.017Z,21.26
2022-10-18T11:34:46.652Z,20.95
2022-10-18T11:38:07.053Z,20.94
2022-10-18T11:41:27.515Z,21.00
2022-10-18T11:44:40.973Z,21.32
2022-10-18T11:47:56.210Z,21.72
2022-10-18T11:51:11.246Z,21.96
2022-10-18T11:54:47.606Z,22.09
2022-10-18T11:58:01.666Z,21.98
2022-10-18T12:01:19.207Z,21.53
2022-10-18T12:04:34.995Z,21.66
2022-10-18T12:07:48.923Z,21.38
2022-10-18T12:11:05.111Z,21.40
2022-10-18T12:14:22.320Z,22.17
2022-10-18T12:17:44.035Z,22.37
2022-10-18T12:21:00.639Z,22.89
2022-10-18T12:24:12.112Z,22.65
2022-10-18T12:27:19.279Z,22.60
2022-10-18T12:30:32.783Z,23.00
2022-10-18T12:33:41.762Z,22.54
2022-10-18T12:37:00.836Z,22.28
2022-10-18T12:40:17.000Z,22.77
2022-10-18T12:43:32.621Z,22.93
2022-10-18T12:46:50.965Z,22.64
2022-10-18T12:49:58.993Z,22.66
2022-10-18T12:53:17.167Z,22.76
2022-10-18T12:56:42.211Z,23.21
2022-10-18T12:59:48.604Z,23.12
2022-10-18T13:03:55.596Z,23.28
2022-10-18T13:07:21.497Z,23.28
2022-10-18T13:10:38.370Z,23.84
2022-10-18T13:13:59.657Z,22.74
2022-10-18T13:17:19.160Z,22.00
2022-10-18T13:20:33.802Z,22.61
2022-10-18T13:23:48.424Z,22.40
2022-10-18T13:27:38.257Z,21.77
2022-10-18T13:30:52.496Z,22.57
2022-10-18T13:34:19.206Z,21.66
2022-10-18T13:37:26.615Z,22.70
2022-10-18T13:40:34.092Z,21.94
2022-10-18T13:44:21.868Z,22.28
2022-10-18T13:47:37.399Z,21.70
2022-10-18T13:50:45.915Z,22.06
2022-10-18T13:53:59.182Z,21.68
2022-10-18T13:57:24.029Z,21.05
2022-10-18T14:00:49.035Z,21.39
2022-10-18T14:04:28.085Z,21.36
2022-10-18T14:07:35.594Z,21.94
2022-10-18T14:11:01.801Z,22.20
2022-10-18T14:14:16.655Z,21.75
2022-10-18T14:17:31.280Z,21.34
2022-10-18T14:20:55.328Z,21.02
2022-10-18T14:24:20.298Z,20.24
2022-10-18T14:27:28.004Z,20.22
2022-10-18T14:30:34.147Z,20.01
2022-10-18T14:33:43.455Z,20.54
2022-10-18T14:36:51.670Z,18.87
2022-10-18T14:39:57.950Z,18.29
2022-10-18T14:43:07.712Z,17.90
2022-10-18T14:46:21.892Z,17.45
2022-10-18T14:49:28.786Z,17.09
2022-10-18T14:52:37.425Z,16.52
2022-10-18T14:55:44.886Z,16.24
2022-10-18T14:58:54.117Z,16.12
2022-10-18T15:02:05.428Z,15.40
2022-10-18T15:05:20.968Z,15.23
2022-10-18T15:08:34.667Z,14.96
2022-10-18T15:11:42.787Z,14.83
2022-10-18T15:14:50.408Z,14.55
2022-10-18T15:17:58.225Z,14.51
2022-10-18T15:21:22.731Z,13.86
2022-10-18T15:24:36.646Z,13.29
2022-10-18T15:27:48.108Z,12.76
2022-10-18T15:30:58.054Z,12.53
2022-10-18T15:34:17.064Z,12.65
2022-10-18T15:37:35.502Z,12.27
2022-10-18T15:40:44.888Z,12.03
2022-10-18T15:43:51.595Z,11.67
2022-10-18T15:47:20.282Z,11.08
2022-10-18T15:50:39.753Z,11.05
2022-10-18T15:53:51.603Z,10.88
2022-10-18T15:56:59.424Z,11.00
2022-10-18T16:00:09.227Z,10.67
2022-10-18T16:03:16.279Z,10.58
2022-10-18T16:06:22.151Z,11.47
2022-10-18T16:09:29.896Z,11.68
2022-10-18T16:12:37.356Z,11.31
2022-10-18T16:15:43.444Z,10.64
2022-10-18T16:18:50.011Z,11.04
2022-10-18T16:21:56.339Z,10.72
2022-10-18T16:25:02.358Z,11.37
2022-10-18T16:28:14.496Z,11.12
2022-10-18T16:31:22.264Z,10.82
2022-10-18T16:34:28.656Z,10.60
2022-10-18T16:37:34.790Z,10.91
2022-10-18T16:40:41.493Z,8.89
2022-10-18T16:43:50.663Z,9.06
2022-10-18T16:46:57.229Z,8.46
2022-10-18T16:50:08.332Z,8.48
2022-10-18T16:53:14.414Z,8.57
2022-10-18T16:56:22.717Z,8.42
2022-10-18T16:59:31.796Z,8.39
2022-10-18T17:02:37.718Z,8.15
2022-10-18T17:05:44.523Z,8.19
2022-10-18T17:08:50.986Z,8.48
2022-10-18T17:11:57.322Z,8.62
2022-10-18T17:15:05.703Z,8.58
2022-10-18T17:18:14.229Z,8.55
2022-10-18T17:21:20.811Z,8.90
2022-10-18T17:24:27.193Z,8.59
2022-10-18T17:27:33.497Z,8.52
2022-10-18T17:30:41.083Z,8.31
2022-10-18T17:33:47.176Z,8.11
2022-10-18T17:36:53.542Z,7.84
2022-10-18T17:39:59.746Z,7.26
2022-10-18T17:43:06.275Z,7.12
2022-10-18T17:46:14.364Z,6.88
2022-10-18T17:49:22.155Z,7.28
2022-10-18T17:52:28.643Z,6.96
2022-10-18T17:55:35.442Z,7.21
2022-10-18T17:58:43.578Z,6.63
2022-10-18T18:01:51.170Z,6.89
2022-10-18T18:04:57.471Z,6.87
2022-10-18T18:08:04.320Z,6.45
2022-10-18T18:11:10.798Z,6.42
2022-10-18T18:14:17.587Z,6.48
2022-10-18T18:17:33.973Z,6.27
2022-10-18T18:20:54.614Z,6.12
2022-10-18T18:24:01.572Z,6.20
2022-10-18T18:27:07.711Z,6.42
2022-10-18T18:30:15.543Z,6.55
2022-10-18T18:33:22.980Z,6.25
2022-10-18T18:36:30.153Z,6.01
2022-10-18T18:39:39.378Z,5.77
2022-10-18T18:42:56.776Z,5.99
2022-10-18T18:46:12.687Z,5.77
2022-10-18T18:49:20.410Z,5.71
2022-10-18T18:52:26.712Z,5.68
2022-10-18T18:55:34.657Z,5.49
2022-10-18T18:58:42.647Z,5.77
2022-10-18T19:01:49.077Z,5.34
2022-10-18T19:04:56.423Z,5.19
2022-10-18T19:08:03.298Z,5.32
2022-10-18T19:11:09.867Z,5.25
2022-10-18T19:14:16.897Z,5.40
2022-10-18T19:17:23.742Z,5.32
2022-10-18T19:20:31.652Z,5.64
2022-10-18T19:23:37.901Z,5.87
2022-10-18T19:26:46.187Z,5.78
2022-10-18T19:29:52.214Z,5.80
2022-10-18T19:33:04.228Z,4.74
2022-10-18T19:36:11.714Z,4.43
2022-10-18T19:39:19.994Z,4.30
2022-10-18T19:42:30.290Z,4.66
2022-10-18T19:45:37.145Z,5.41
2022-10-18T19:48:43.558Z,5.54
2022-10-18T19:51:51.425Z,5.30
2022-10-18T19:54:57.755Z,4.91
2022-10-18T19:58:04.363Z,5.13
2022-10-18T20:01:10.459Z,4.38
2022-10-18T20:04:17.454Z,4.48
2022-10-18T20:07:24.976Z,4.44
2022-10-18T20:10:31.319Z,4.20
2022-10-18T20:13:38.621Z,4.24
2022-10-18T20:16:45.019Z,4.21
2022-10-18T20:19:51.282Z,4.15
2022-10-18T20:22:58.975Z,4.01
2022-10-18T20:26:07.911Z,3.93
2022-10-18T20:29:14.307Z,4.13
2022-10-18T20:32:20.505Z,3.94
2022-10-18T20:35:26.935Z,3.78
2022-10-18T20:38:36.290Z,3.75
2022-10-18T20:41:42.865Z,3.56
2022-10-18T20:44:49.543Z,3.57
2022-10-18T20:47:56.560Z,4.00
2022-10-18T20:51:05.278Z,4.21
2022-10-18T20:54:13.414Z,4.12
2022-10-18T20:57:19.784Z,3.92
2022-10-18T21:00:25.897Z,3.83
2022-10-18T21:03:32.000Z,3.75
2022-10-18T21:06:41.435Z,4.00
2022-10-18T21:09:49.227Z,3.80
2022-10-18T21:12:55.152Z,3.41
2022-10-18T21:16:01.727Z,4.14
2022-10-18T21:19:09.599Z,3.54
2022-10-18T21:22:15.815Z,3.43
2022-10-18T21:25:23.245Z,3.51
2022-10-18T21:28:29.208Z,4.11
2022-10-18T21:31:36.938Z,3.59
2022-10-18T21:34:42.986Z,3.68
2022-10-18T21:37:49.022Z,3.85
2022-10-18T21:40:56.715Z,3.59
2022-10-18T21:44:05.610Z,3.66
2022-10-18T21:47:15.422Z,3.93
2022-10-18T21:50:21.701Z,3.19
2022-10-18T21:53:27.908Z,3.03
2022-10-18T21:56:36.838Z,2.63
2022-10-18T21:59:43.467Z,2.48
2022-10-18T22:02:49.588Z,2.36
2022-10-18T22:06:01.375Z,2.17
2022-10-18T22:09:09.094Z,3.19
2022-10-18T22:12:16.616Z,3.20
2022-10-18T22:15:22.732Z,2.99
2022-10-18T22:18:28.793Z,3.15
2022-10-18T22:21:35.776Z,2.66
2022-10-18T22:24:41.785Z,2.94
2022-10-18T22:27:49.635Z,3.14
2022-10-18T22:30:55.928Z,3.24
2022-10-18T22:34:04.287Z,2.54
2022-10-18T22:37:10.310Z,2.38
2022-10-18T22:40:16.663Z,1.98
2022-10-18T22:43:24.507Z,2.39
2022-10-18T22:46:30.633Z,2.60
2022-10-18T22:49:36.849Z,2.86
2022-10-18T22:52:43.223Z,2.48
2022-10-18T22:55:49.878Z,2.21
2022-10-18T22:58:57.468Z,2.20
2022-10-18T23:02:03.567Z,2.46
2022-10-18T23:05:10.172Z,1.44
2022-10-18T23:08:16.239Z,1.26
2022-10-18T23:11:23.067Z,1.48
2022-10-18T23:14:30.326Z,1.72
2022-10-18T23:17:36.618Z,2.00
2022-10-18T23:20:43.071Z,2.09
2022-10-18T23:23:49.449Z,2.75
2022-10-18T23:26:55.663Z,2.85
2022-10-18T23:30:03.289Z,2.74
2022-10-18T23:33:10.081Z,2.17
2022-10-18T23:36:16.472Z,2.63
2022-10-18T23:39:22.771Z,2.60
2022-10-18T23:42:29.169Z,1.64
2022-10-18T23:45:37.066Z,1.24
2022-10-18T23:48:43.784Z,1.39
2022-10-18T23:51:49.779Z,1.99
2022-10-18T23:54:56.180Z,1.65
2022-10-18T23:58:02.726Z,1.42
